Time;durP1;ratioP1;P1;durP2;ratioP2;P2;SDS_P1;SDS_P2;PMS_P1;PMS_P2;Temp;Humidity;BMP_temperature;BMP_pressure;BME280_temperature;BME280_humidity;BME280_pressure;Samples;Min_cycle;Max_cycle;Signal;HPM_P1;HPM_P2
2023/01/28 00:01:28;;;;;;;40.20;20.60;;;;;;;0.24;76.00;99176.70;221260;1261;22588;-74
2023/01/28 00:06:34;;;;;;;46.80;24.30;;;;;;;0.22;75.65;99172.67;221371;1280;22618;-76
2023/01/28 00:11:42;;;;;;;47.70;24.10;;;;;;;0.21;75.89;99173.48;221371;1280;22740;-76
2023/01/28 00:16:46;;;;;;;46.80;25.40;;;;;;;0.21;75.67;99175.40;221570;1280;24215;-76
2023/01/28 00:21:55;;;;;;;45.70;25.30;;;;;;;0.20;76.19;99171.63;221493;1280;25543;-74
2023/01/28 00:26:58;;;;;;;44.30;23.60;;;;;;;0.21;76.05;99167.77;221337;1279;26599;-75
2023/01/28 00:32:01;;;;;;;44.40;24.50;;;;;;;0.21;76.19;99175.71;221469;1280;27184;-76
2023/01/28 00:37:26;;;;;;;42.00;21.90;;;;;;;0.24;76.32;99175.70;221201;1280;25456;-75
2023/01/28 00:42:45;;;;;;;46.00;24.50;;;;;;;0.19;75.64;99176.55;221365;1280;25339;-75
2023/01/28 00:47:48;;;;;;;;;;;;;;;0.18;75.90;99177.68;221398;1278;25476;-75
2023/01/28 00:52:53;;;;;;;48.10;24.50;;;;;;;0.18;76.03;99174.20;221194;1280;22649;-75
2023/01/28 00:58:16;;;;;;;45.90;23.60;;;;;;;0.17;75.93;99176.38;221324;1273;22639;-75
2023/01/28 01:03:25;;;;;;;44.70;25.30;;;;;;;0.17;76.20;99174.67;220267;1285;27529;-75
2023/01/28 01:08:38;;;;;;;40.40;23.60;;;;;;;0.18;76.39;99180.11;220617;1285;22608;-76
2023/01/28 01:13:56;;;;;;;44.60;23.90;;;;;;;0.18;76.46;99180.94;220545;1283;22546;-76
2023/01/28 01:18:59;;;;;;;49.40;25.50;;;;;;;0.19;76.45;99182.64;220446;1283;25535;-75
2023/01/28 01:24:05;;;;;;;47.80;24.90;;;;;;;0.19;76.51;99183.48;220330;1285;22623;-75
2023/01/28 01:29:08;;;;;;;35.80;19.80;;;;;;;0.21;76.35;99192.02;220542;1284;25408;-75
2023/01/28 01:34:18;;;;;;;38.50;20.50;;;;;;;0.19;75.63;99194.78;221075;1280;22539;-76
2023/01/28 01:39:23;;;;;;;41.00;21.00;;;;;;;0.16;75.23;99200.84;221247;1279;22534;-76
2023/01/28 01:45:17;;;;;;;37.70;19.90;;;;;;;0.15;75.52;99196.95;221319;1279;24023;-75
2023/01/28 01:50:35;;;;;;;29.70;16.50;;;;;;;0.14;75.23;99200.70;220195;1286;25432;-77
2023/01/28 01:55:42;;;;;;;33.10;17.30;;;;;;;0.11;74.58;99202.84;221149;1280;24287;-75
2023/01/28 02:00:47;;;;;;;32.30;17.40;;;;;;;0.07;74.58;99207.76;221219;1279;25311;-75
2023/01/28 02:05:53;;;;;;;27.50;15.60;;;;;;;0.02;74.65;99202.55;221371;1276;25307;-75
2023/01/28 02:11:04;;;;;;;36.50;18.90;;;;;;;-0.00;74.37;99201.54;221228;1270;24241;-74
2023/01/28 02:16:08;;;;;;;31.90;17.30;;;;;;;-0.02;74.56;99204.63;221212;1273;25480;-75
2023/01/28 02:21:50;;;;;;;33.60;17.60;;;;;;;-0.04;74.51;99204.23;221448;1280;24282;-75
2023/01/28 02:27:24;;;;;;;33.20;18.00;;;;;;;-0.04;74.74;99204.26;221197;1278;25443;-75
2023/01/28 02:32:52;;;;;;;33.40;16.40;;;;;;;-0.03;74.75;99211.77;221313;1277;22595;-75
2023/01/28 02:38:18;;;;;;;30.20;15.10;;;;;;;-0.02;74.89;99212.21;221102;1278;278692;-75
2023/01/28 02:43:39;;;;;;;27.80;15.40;;;;;;;-0.03;74.78;99217.28;221387;1276;22883;-75
2023/01/28 02:48:41;;;;;;;31.20;18.70;;;;;;;-0.01;74.62;99217.55;221422;1273;25298;-75
2023/01/28 02:54:11;;;;;;;31.80;16.50;;;;;;;-0.04;74.61;99227.07;221264;1280;24302;-74
2023/01/28 02:59:30;;;;;;;30.30;16.60;;;;;;;-0.04;74.90;99228.30;221458;1280;24337;-75
2023/01/28 03:05:25;;;;;;;30.60;17.50;;;;;;;-0.09;74.61;99233.35;221491;1280;22871;-74
2023/01/28 03:10:28;;;;;;;28.20;15.60;;;;;;;-0.13;74.71;99238.62;221355;1280;22552;-76
2023/01/28 03:38:22;;;;;;;28.00;15.70;;;;;;;-0.20;74.61;99237.60;221421;1280;26544;-75
2023/01/28 03:43:41;;;;;;;30.70;16.60;;;;;;;-0.22;74.67;99237.75;221350;1280;23072;-75
2023/01/28 03:48:46;;;;;;;30.90;17.30;;;;;;;-0.22;74.47;99245.72;221081;1280;22540;-75
2023/01/28 03:53:53;;;;;;;33.90;17.80;;;;;;;-0.21;74.49;99240.98;221070;1278;22571;-76
2023/01/28 03:59:07;;;;;;;28.30;16.10;;;;;;;-0.21;74.31;99233.15;221535;1280;25511;-75
2023/01/28 04:04:21;;;;;;;29.90;15.90;;;;;;;-0.21;74.02;99232.30;221202;1279;22824;-75
2023/01/28 04:09:28;;;;;;;27.70;14.30;;;;;;;-0.20;74.25;99233.07;221173;1280;24353;-75
2023/01/28 04:14:52;;;;;;;22.80;13.80;;;;;;;-0.19;74.18;99238.73;221104;1277;25487;-75
2023/01/28 04:20:05;;;;;;;22.00;12.50;;;;;;;-0.23;73.80;99239.52;221448;1272;25316;-75
2023/01/28 04:25:08;;;;;;;21.70;11.80;;;;;;;-0.29;73.75;99243.79;221152;1279;22618;-75
2023/01/28 04:30:11;;;;;;;20.60;11.90;;;;;;;-0.37;73.60;99234.44;221223;1259;23327;-76
2023/01/28 04:35:31;;;;;;;20.90;11.70;;;;;;;-0.40;73.56;99241.95;222160;1271;22581;-76
2023/01/28 04:41:23;;;;;;;22.20;12.70;;;;;;;-0.43;73.80;99243.50;221225;1280;24403;-75
2023/01/28 04:46:32;;;;;;;21.10;11.50;;;;;;;-0.46;73.55;99241.85;220653;1285;25363;-76
2023/01/28 04:51:47;;;;;;;18.00;10.50;;;;;;;-0.50;73.45;99240.56;220426;1283;22566;-75
2023/01/28 04:57:02;;;;;;;16.80;9.90;;;;;;;-0.52;73.43;99250.09;220608;1285;24257;-76
2023/01/28 05:02:17;;;;;;;16.10;9.50;;;;;;;-0.57;73.51;99246.20;220454;1285;25355;-75
2023/01/28 05:07:34;;;;;;;13.90;8.50;;;;;;;-0.60;73.34;99252.40;220434;1285;22749;-75
2023/01/28 05:12:49;;;;;;;15.90;9.50;;;;;;;-0.62;73.41;99247.34;220374;1283;23974;-76
2023/01/28 05:17:58;;;;;;;13.80;8.80;;;;;;;-0.64;73.37;99250.89;221180;1280;22621;-75
2023/01/28 05:23:15;;;;;;;24.40;12.20;;;;;;;-0.64;73.49;99256.80;221377;1278;24253;-75
2023/01/28 05:28:28;;;;;;;21.80;12.80;;;;;;;-0.67;73.63;99263.90;221425;1278;22614;-75
2023/01/28 05:33:41;;;;;;;22.60;12.10;;;;;;;-0.70;73.40;99266.70;221249;1280;23852;-76
2023/01/28 05:38:46;;;;;;;19.40;10.80;;;;;;;-0.74;73.40;99270.06;221223;1275;22643;-74
2023/01/28 05:43:49;;;;;;;17.30;10.60;;;;;;;-0.76;73.35;99273.38;221383;1278;22545;-75
2023/01/28 05:49:07;;;;;;;17.70;10.10;;;;;;;-0.78;73.28;99280.79;221356;1280;22544;-75
2023/01/28 05:54:57;;;;;;;14.50;9.30;;;;;;;-0.82;73.26;99278.77;221367;1268;24358;-75
2023/01/28 06:00:14;;;;;;;17.50;10.60;;;;;;;-0.83;73.31;99279.86;221203;1278;23224;-75
2023/01/28 06:05:30;;;;;;;18.00;10.40;;;;;;;-0.83;73.19;99288.71;221251;1280;22534;-76
2023/01/28 06:10:46;;;;;;;20.20;11.30;;;;;;;-0.82;73.41;99293.14;221265;1270;22541;-75
2023/01/28 06:15:53;;;;;;;18.50;11.70;;;;;;;-0.81;73.06;99295.46;221315;1278;24280;-77
2023/01/28 06:21:42;;;;;;;22.00;12.40;;;;;;;-0.81;73.63;99299.59;221258;1280;22740;-75
2023/01/28 06:26:45;;;;;;;22.60;12.70;;;;;;;-0.82;73.91;99306.63;221256;1280;25475;-75
2023/01/28 06:31:52;;;;;;;21.80;12.30;;;;;;;-0.86;74.30;99321.60;221270;1273;22568;-75
2023/01/28 06:37:03;;;;;;;20.70;11.30;;;;;;;-0.91;74.42;99326.58;221407;1280;22554;-75
2023/01/28 06:42:08;;;;;;;23.10;12.00;;;;;;;-0.90;74.53;99328.61;221396;1276;22537;-76
2023/01/28 06:47:11;;;;;;;23.70;12.90;;;;;;;-0.90;74.73;99328.26;221385;1278;22838;-75
2023/01/28 06:52:14;;;;;;;24.80;13.80;;;;;;;-0.88;74.82;99336.26;221214;1280;22599;-75
2023/01/28 06:57:16;;;;;;;25.40;15.90;;;;;;;-0.84;74.81;99338.54;221085;1278;22585;-75
2023/01/28 07:02:19;;;;;;;23.50;12.50;;;;;;;-0.79;74.97;99344.07;221149;1270;22780;-75
2023/01/28 07:07:30;;;;;;;17.70;10.30;;;;;;;-0.74;74.81;99351.53;221273;1278;22590;-75
2023/01/28 07:12:36;;;;;;;19.90;11.40;;;;;;;-0.72;74.48;99354.85;221350;1280;24224;-76
2023/01/28 07:17:42;;;;;;;21.30;12.00;;;;;;;-0.67;74.67;99359.06;221220;1277;23030;-75
2023/01/28 07:22:54;;;;;;;21.30;11.80;;;;;;;-0.59;74.48;99358.49;221465;1276;22713;-75
2023/01/28 07:27:57;;;;;;;19.90;11.60;;;;;;;-0.52;74.56;99367.67;221256;1278;22533;-76
2023/01/28 07:33:00;;;;;;;20.50;11.30;;;;;;;-0.46;74.55;99370.21;221416;1280;24231;-75
2023/01/28 07:38:05;;;;;;;22.70;13.00;;;;;;;-0.35;74.63;99375.55;221404;1275;22527;-76
2023/01/28 07:43:13;;;;;;;24.10;13.70;;;;;;;-0.25;74.13;99377.94;221266;1280;24871;-75
2023/01/28 07:48:23;;;;;;;20.40;12.40;;;;;;;-0.17;74.06;99382.95;222682;1274;24263;-72
2023/01/28 07:53:33;;;;;;;21.20;13.40;;;;;;;-0.10;73.86;99383.99;221820;1280;25538;-73
2023/01/28 07:58:38;;;;;;;19.40;11.00;;;;;;;-0.05;73.48;99389.06;221656;1273;24302;-73
2023/01/28 08:03:45;;;;;;;20.80;13.00;;;;;;;-0.02;73.17;99391.41;221879;1265;25830;-73
2023/01/28 08:08:50;;;;;;;20.60;12.50;;;;;;;0.05;73.35;99390.23;221661;1272;25348;-72
2023/01/28 08:13:52;;;;;;;20.10;11.00;;;;;;;0.14;73.22;99393.08;221929;1256;22581;-73
2023/01/28 08:18:57;;;;;;;17.80;10.60;;;;;;;0.20;72.88;99402.00;221959;1272;22533;-72
2023/01/28 08:24:02;;;;;;;19.00;11.30;;;;;;;0.29;72.76;99406.36;221730;1259;25527;-73
2023/01/28 08:29:05;;;;;;;18.60;11.30;;;;;;;0.39;72.63;99408.30;221694;1273;24198;-73
2023/01/28 08:34:13;;;;;;;18.10;10.90;;;;;;;0.44;72.39;99408.86;221780;1266;22551;-73
2023/01/28 08:39:24;;;;;;;18.20;10.80;;;;;;;0.44;72.11;99409.46;221658;1272;22635;-72
2023/01/28 08:44:35;;;;;;;18.70;10.90;;;;;;;0.48;72.12;99406.78;221829;1258;22720;-74
2023/01/28 08:49:41;;;;;;;17.40;10.60;;;;;;;0.54;72.00;99408.93;221507;1273;22533;-73
2023/01/28 08:54:43;;;;;;;20.80;11.60;;;;;;;0.62;72.02;99413.23;221634;1273;23112;-74
2023/01/28 08:59:51;;;;;;;14.10;9.10;;;;;;;0.70;71.74;99414.21;221815;1265;22548;-73
2023/01/28 09:04:57;;;;;;;16.10;9.40;;;;;;;0.79;71.11;99416.30;222044;1259;22536;-72
2023/01/28 09:10:00;;;;;;;20.10;10.90;;;;;;;0.87;71.18;99413.83;221732;1268;25377;-72
2023/01/28 09:15:03;;;;;;;19.40;10.20;;;;;;;0.94;70.99;99416.92;221456;1263;25201;-73
2023/01/28 09:20:32;;;;;;;19.20;12.00;;;;;;;1.06;71.12;99423.55;221834;1275;22565;-74
2023/01/28 09:25:35;;;;;;;16.40;9.70;;;;;;;1.12;70.65;99428.48;220968;1278;22543;-74
2023/01/28 09:30:41;;;;;;;17.60;9.60;;;;;;;1.16;70.44;99429.77;221083;1267;22597;-75
2023/01/28 09:35:44;;;;;;;17.50;10.20;;;;;;;1.20;70.10;99435.21;221166;1277;22657;-73
2023/01/28 09:40:50;;;;;;;17.90;10.70;;;;;;;1.24;70.00;99433.64;220966;1280;25402;-78
2023/01/28 09:45:57;;;;;;;16.00;9.90;;;;;;;1.31;70.07;99436.98;220948;1277;22786;-75
2023/01/28 09:51:00;;;;;;;15.30;10.00;;;;;;;1.33;69.58;99436.95;220898;1277;23942;-75
2023/01/28 09:56:13;;;;;;;16.50;10.90;;;;;;;1.36;69.79;99429.65;221782;1271;22500;-74
2023/01/28 10:01:18;;;;;;;17.80;11.20;;;;;;;1.42;69.72;99419.81;221822;1271;22679;-74
2023/01/28 10:06:49;;;;;;;16.20;10.00;;;;;;;1.54;69.64;99418.23;221621;1273;22667;-74
2023/01/28 10:12:36;;;;;;;18.70;11.40;;;;;;;1.70;69.58;99420.30;221733;1272;22539;-75
2023/01/28 10:17:44;;;;;;;17.40;9.30;;;;;;;1.82;69.21;99414.73;221391;1275;22537;-74
2023/01/28 10:23:01;;;;;;;15.00;10.10;;;;;;;1.92;68.60;99412.23;221798;1275;22600;-74
2023/01/28 10:28:19;;;;;;;14.90;9.80;;;;;;;1.93;68.14;99415.45;221679;1274;24274;-75
2023/01/28 10:33:27;;;;;;;18.70;11.30;;;;;;;2.00;68.31;99414.17;221585;1277;22654;-73
2023/01/28 10:38:30;;;;;;;17.10;10.70;;;;;;;1.98;67.95;99410.88;221794;1275;22540;-73
2023/01/28 10:43:36;;;;;;;16.90;9.90;;;;;;;1.98;67.78;99407.36;221823;1272;24584;-75
2023/01/28 10:48:46;;;;;;;17.30;9.70;;;;;;;2.02;67.84;99409.52;221883;1259;22560;-74
2023/01/28 10:53:48;;;;;;;13.70;9.20;;;;;;;2.13;68.12;99411.61;221493;1272;23164;-72
2023/01/28 10:59:01;;;;;;;15.70;9.60;;;;;;;2.30;68.22;99412.70;221675;1272;22583;-75
2023/01/28 11:04:06;;;;;;;21.10;11.50;;;;;;;2.38;67.26;99415.02;221777;1275;22560;-74
2023/01/28 11:09:21;;;;;;;21.60;11.60;;;;;;;2.36;67.34;99417.12;221926;1273;22575;-75
2023/01/28 11:14:26;;;;;;;23.30;11.90;;;;;;;2.45;67.51;99408.87;221685;1274;22663;-75
2023/01/28 11:19:37;;;;;;;14.60;9.30;;;;;;;2.45;66.64;99408.76;221701;1273;25461;-75
2023/01/28 11:24:41;;;;;;;15.10;9.80;;;;;;;2.49;66.75;99406.34;221567;1272;22565;-74
2023/01/28 11:29:44;;;;;;;12.00;8.10;;;;;;;2.62;67.10;99405.45;221591;1272;22545;-76
2023/01/28 11:34:50;;;;;;;15.00;8.80;;;;;;;2.63;66.60;99402.98;221711;1272;24295;-74
2023/01/28 11:40:21;;;;;;;12.60;9.10;;;;;;;2.58;66.29;99398.33;221958;1274;22565;-74
2023/01/28 11:45:41;;;;;;;14.30;9.00;;;;;;;2.56;66.62;99403.30;221911;1277;22533;-73
2023/01/28 11:50:56;;;;;;;14.60;9.60;;;;;;;2.58;66.77;99397.83;221816;1277;22984;-74
2023/01/28 11:56:44;;;;;;;14.20;9.20;;;;;;;2.59;67.14;99393.58;221322;1274;25401;-73
2023/01/28 12:02:20;;;;;;;14.10;9.60;;;;;;;2.71;67.20;99395.52;221674;1275;22855;-74
2023/01/28 12:07:34;;;;;;;16.80;10.60;;;;;;;2.77;66.94;99392.25;221505;1272;24120;-76
2023/01/28 12:12:44;;;;;;;17.60;10.70;;;;;;;2.79;67.07;99394.03;221551;1280;25393;-77
2023/01/28 12:17:55;;;;;;;17.00;10.90;;;;;;;2.85;67.19;99391.92;221297;1278;24216;-75
2023/01/28 12:23:23;;;;;;;16.30;10.00;;;;;;;2.85;67.06;99389.48;221440;1278;22673;-76
2023/01/28 12:28:40;;;;;;;15.00;8.80;;;;;;;2.79;66.53;99392.13;221405;1275;22546;-76
2023/01/28 12:34:37;;;;;;;15.40;10.50;;;;;;;2.74;66.81;99388.17;221651;1280;22847;-75
2023/01/28 12:40:30;;;;;;;17.40;10.80;;;;;;;2.70;66.76;99388.98;220704;1283;22645;-76
2023/01/28 12:45:50;;;;;;;18.60;10.70;;;;;;;2.70;67.38;99395.55;221216;1280;24115;-75
2023/01/28 12:51:01;;;;;;;17.70;11.30;;;;;;;2.66;67.11;99395.63;221495;1278;22536;-75
2023/01/28 12:56:15;;;;;;;19.30;12.40;;;;;;;2.57;67.15;99398.70;221365;1278;22552;-75
2023/01/28 13:01:24;;;;;;;19.80;12.00;;;;;;;2.44;66.77;99400.93;221511;1278;24418;-75
2023/01/28 13:06:32;;;;;;;20.80;12.40;;;;;;;2.38;67.17;99404.79;221553;1278;22595;-75
2023/01/28 13:11:35;;;;;;;19.80;12.60;;;;;;;2.31;67.70;99405.48;221550;1278;26564;-75
2023/01/28 13:16:38;;;;;;;22.30;13.60;;;;;;;2.24;67.68;99405.91;221632;1275;24245;-75
2023/01/28 13:21:41;;;;;;;16.80;11.30;;;;;;;2.11;67.23;99408.95;221511;1278;22547;-75
2023/01/28 13:26:53;;;;;;;23.30;13.60;;;;;;;2.08;68.04;99410.09;221346;1279;24322;-76
2023/01/28 13:32:02;;;;;;;25.40;14.60;;;;;;;2.08;68.17;99410.41;221641;1280;22604;-76
2023/01/28 13:37:27;;;;;;;23.00;14.00;;;;;;;2.07;68.26;99415.15;221493;1280;26345;-77
2023/01/28 13:42:34;;;;;;;18.50;11.00;;;;;;;2.02;68.32;99422.89;221618;1272;22533;-75
2023/01/28 13:47:39;;;;;;;18.90;11.40;;;;;;;1.89;68.55;99424.45;221497;1276;23021;-76
2023/01/28 13:52:49;;;;;;;21.20;11.60;;;;;;;1.78;68.70;99428.17;221477;1278;22590;-75
2023/01/28 13:58:30;;;;;;;21.80;13.10;;;;;;;1.66;68.80;99431.54;221641;1280;22544;-76
2023/01/28 14:03:57;;;;;;;21.80;13.10;;;;;;;1.56;69.00;99431.42;221543;1277;22673;-76
2023/01/28 14:09:30;;;;;;;26.40;14.50;;;;;;;1.46;69.12;99432.06;221609;1278;25416;-75
2023/01/28 14:15:13;;;;;;;23.90;12.80;;;;;;;1.34;69.47;99433.61;221730;1280;22619;-76
2023/01/28 14:20:31;;;;;;;26.20;15.00;;;;;;;1.23;69.55;99437.73;221649;1272;22531;-76
2023/01/28 14:25:58;;;;;;;28.70;16.50;;;;;;;1.19;69.78;99438.55;221454;1280;22537;-77
2023/01/28 14:31:31;;;;;;;27.30;16.00;;;;;;;1.20;69.95;99443.18;221516;1278;22577;-75
2023/01/28 14:36:39;;;;;;;26.60;15.80;;;;;;;1.20;70.43;99445.90;221102;1269;278101;-76
2023/01/28 14:41:47;;;;;;;26.80;16.50;;;;;;;1.20;70.54;99449.10;221412;1280;22573;-75
2023/01/28 14:47:16;;;;;;;29.00;17.30;;;;;;;1.16;70.73;99459.25;221693;1276;23315;-76
2023/01/28 14:52:24;;;;;;;34.30;18.40;;;;;;;1.10;71.25;99463.16;221316;1278;22587;-75
2023/01/28 14:57:43;;;;;;;34.10;19.00;;;;;;;1.02;71.01;99465.11;221516;1278;22702;-75
2023/01/28 15:02:45;;;;;;;33.40;18.30;;;;;;;0.92;71.26;99469.27;221512;1278;22567;-76
2023/01/28 15:07:48;;;;;;;34.60;18.80;;;;;;;0.85;71.75;99471.58;221327;1271;22576;-76
2023/01/28 15:12:59;;;;;;;35.20;19.90;;;;;;;0.79;71.87;99473.75;221383;1278;25230;-76
2023/01/28 15:18:24;;;;;;;36.30;19.10;;;;;;;0.73;72.27;99480.95;221559;1280;24260;-75
2023/01/28 15:23:35;;;;;;;35.50;18.70;;;;;;;0.67;72.65;99483.09;221634;1262;22545;-76
2023/01/28 15:28:39;;;;;;;32.80;17.40;;;;;;;0.63;72.78;99483.71;221432;1278;22532;-75
2023/01/28 15:33:41;;;;;;;33.30;17.90;;;;;;;0.58;72.84;99493.59;221520;1275;26429;-75
2023/01/28 15:38:44;;;;;;;37.20;19.30;;;;;;;0.52;73.13;99498.02;221320;1279;22551;-76
2023/01/28 15:43:48;;;;;;;32.30;18.70;;;;;;;0.47;73.18;99501.63;221462;1280;24422;-75
2023/01/28 15:49:02;;;;;;;35.60;20.30;;;;;;;0.44;73.82;99511.07;221649;1277;26392;-76
2023/01/28 15:54:09;;;;;;;32.80;18.10;;;;;;;0.42;74.26;99522.14;221254;1278;25340;-76
2023/01/28 15:59:14;;;;;;;38.40;20.30;;;;;;;0.39;74.51;99527.36;221334;1271;24218;-75
2023/01/28 16:04:28;;;;;;;39.40;21.70;;;;;;;0.35;74.65;99531.73;221366;1278;22748;-75
2023/01/28 16:09:33;;;;;;;39.80;21.80;;;;;;;0.31;75.24;99531.98;221326;1278;23450;-76
2023/01/28 16:14:48;;;;;;;42.80;21.80;;;;;;;0.26;75.61;99534.64;221551;1278;23013;-76
2023/01/28 16:19:57;;;;;;;42.70;22.90;;;;;;;0.23;76.07;99532.75;221312;1280;22573;-76
2023/01/28 16:25:00;;;;;;;39.70;20.40;;;;;;;0.22;76.53;99538.70;221580;1280;24234;-77
2023/01/28 16:30:04;;;;;;;40.70;21.00;;;;;;;0.22;76.85;99536.95;221743;1276;23806;-76
2023/01/28 16:35:22;;;;;;;39.60;20.80;;;;;;;0.21;77.20;99547.41;221520;1278;24276;-76
2023/01/28 16:40:24;;;;;;;36.00;20.10;;;;;;;0.20;77.74;99547.52;221426;1278;24260;-76
2023/01/28 16:45:26;;;;;;;41.10;21.70;;;;;;;0.15;77.99;99548.75;221449;1280;22544;-75
2023/01/28 16:50:31;;;;;;;42.10;22.90;;;;;;;0.11;77.98;99546.22;221335;1276;24276;-75
2023/01/28 16:55:34;;;;;;;43.10;23.50;;;;;;;0.10;78.18;99544.53;221563;1280;22540;-76
2023/01/28 17:00:36;;;;;;;43.80;22.90;;;;;;;0.11;78.41;99551.05;221331;1280;22557;-76
2023/01/28 17:05:38;;;;;;;46.50;23.40;;;;;;;0.13;78.65;99554.74;221424;1278;22549;-75
2023/01/28 17:10:40;;;;;;;44.80;23.60;;;;;;;0.14;78.95;99558.82;221471;1280;25355;-75
2023/01/28 17:15:42;;;;;;;42.00;21.50;;;;;;;0.14;79.03;99553.98;221653;1280;24192;-75
2023/01/28 17:20:44;;;;;;;41.60;23.30;;;;;;;0.13;79.07;99555.80;221513;1275;25342;-76
2023/01/28 17:25:46;;;;;;;47.80;22.60;;;;;;;0.12;78.68;99551.66;221489;1278;22551;-75
2023/01/28 17:30:48;;;;;;;46.20;23.90;;;;;;;0.15;79.09;99552.57;221478;1278;22676;-76
2023/01/28 17:35:51;;;;;;;45.00;23.60;;;;;;;0.17;79.20;99558.10;221435;1278;22585;-76
2023/01/28 17:40:53;;;;;;;46.00;23.30;;;;;;;0.20;79.53;99563.06;221707;1278;24514;-75
2023/01/28 17:45:55;;;;;;;51.40;24.50;;;;;;;0.24;79.92;99566.46;221412;1278;24256;-76
2023/01/28 17:50:58;;;;;;;42.40;21.90;;;;;;;0.27;79.70;99571.64;221533;1278;24272;-75
2023/01/28 17:56:00;;;;;;;34.60;18.60;;;;;;;0.27;80.14;99571.81;221486;1278;22544;-75
2023/01/28 18:01:08;;;;;;;32.40;18.30;;;;;;;0.22;80.09;99586.83;221673;1272;23328;-76
2023/01/28 18:06:13;;;;;;;35.20;20.10;;;;;;;0.20;80.58;99586.66;221599;1280;22583;-76
2023/01/28 18:11:20;;;;;;;35.00;18.60;;;;;;;0.22;80.65;99590.33;221362;1280;25366;-76
2023/01/28 18:16:23;;;;;;;33.10;18.30;;;;;;;0.23;80.98;99586.95;221447;1278;22555;-76
2023/01/28 18:21:35;;;;;;;30.40;17.10;;;;;;;0.23;80.71;99590.28;221299;1280;22560;-75
2023/01/28 18:26:57;;;;;;;21.00;12.80;;;;;;;0.20;81.26;99593.73;221250;1278;24269;-75
2023/01/28 18:32:01;;;;;;;17.20;11.40;;;;;;;0.12;81.09;99599.65;221409;1279;24358;-75
2023/01/28 18:37:06;;;;;;;16.70;11.10;;;;;;;0.05;81.17;99592.52;221399;1278;22536;-76
2023/01/28 18:42:08;;;;;;;18.00;11.10;;;;;;;-0.03;81.30;99594.60;221510;1278;22670;-74
2023/01/28 18:47:10;;;;;;;19.10;10.80;;;;;;;-0.09;81.43;99595.35;221484;1280;22546;-75
2023/01/28 18:52:13;;;;;;;20.50;12.40;;;;;;;-0.17;81.56;99590.17;221467;1278;22600;-76
2023/01/28 18:57:24;;;;;;;19.10;12.00;;;;;;;-0.19;81.58;99606.56;221441;1280;22799;-75
2023/01/28 19:02:27;;;;;;;21.80;13.70;;;;;;;-0.22;82.12;99606.05;221497;1280;22529;-76
2023/01/28 19:07:30;;;;;;;25.00;15.00;;;;;;;-0.26;82.21;99608.59;221393;1280;22686;-74
2023/01/28 19:12:35;;;;;;;25.60;14.80;;;;;;;-0.27;82.22;99610.91;221481;1280;22613;-76
2023/01/28 19:17:38;;;;;;;21.20;13.00;;;;;;;-0.29;82.12;99612.92;221483;1279;22573;-76
2023/01/28 19:22:43;;;;;;;23.30;12.60;;;;;;;-0.32;82.15;99611.06;221503;1278;24366;-75
2023/01/28 19:27:45;;;;;;;22.30;13.50;;;;;;;-0.35;82.14;99621.62;221215;1279;22541;-76
2023/01/28 19:32:47;;;;;;;22.40;13.20;;;;;;;-0.37;82.37;99621.74;221421;1280;24231;-76
2023/01/28 19:37:49;;;;;;;22.30;13.30;;;;;;;-0.39;82.42;99620.28;221205;1276;22566;-77
2023/01/28 19:42:52;;;;;;;21.50;12.90;;;;;;;-0.41;82.40;99620.77;221492;1278;22536;-77
2023/01/28 19:47:58;;;;;;;21.70;12.30;;;;;;;-0.40;82.23;99621.09;221546;1280;24235;-76
2023/01/28 19:53:00;;;;;;;24.80;13.90;;;;;;;-0.39;82.42;99628.27;221589;1279;22613;-76
2023/01/28 19:58:02;;;;;;;26.20;15.30;;;;;;;-0.36;82.29;99637.41;221615;1278;24296;-76
2023/01/28 20:03:07;;;;;;;23.10;14.00;;;;;;;-0.31;82.34;99636.31;221486;1276;22560;-75
2023/01/28 20:08:09;;;;;;;23.30;13.70;;;;;;;-0.30;82.41;99645.35;221420;1280;22652;-76
2023/01/28 20:13:14;;;;;;;23.70;13.80;;;;;;;-0.29;82.52;99650.53;221183;1280;25589;-76
2023/01/28 20:18:17;;;;;;;21.80;12.70;;;;;;;-0.32;82.55;99656.56;221389;1279;22602;-76
2023/01/28 20:23:34;;;;;;;22.00;13.40;;;;;;;-0.34;82.34;99658.23;221561;1280;22602;-76
2023/01/28 20:28:40;;;;;;;22.50;13.00;;;;;;;-0.38;82.60;99658.51;221478;1280;23713;-76
2023/01/28 20:33:48;;;;;;;22.30;13.70;;;;;;;-0.40;82.53;99660.15;221392;1280;24273;-75
2023/01/28 20:38:50;;;;;;;22.10;14.00;;;;;;;-0.42;82.63;99656.85;221391;1280;22669;-75
2023/01/28 20:43:53;;;;;;;24.20;14.60;;;;;;;-0.44;82.57;99663.16;221338;1280;24278;-77
2023/01/28 20:48:58;;;;;;;24.60;14.50;;;;;;;-0.45;82.52;99667.09;221442;1280;23964;-75
2023/01/28 20:54:00;;;;;;;24.70;15.20;;;;;;;-0.48;82.43;99670.58;221349;1280;24427;-75
2023/01/28 20:59:04;;;;;;;22.50;12.80;;;;;;;-0.48;82.74;99676.81;221414;1280;22766;-76
2023/01/28 21:04:07;;;;;;;21.60;13.10;;;;;;;-0.49;82.57;99678.25;221711;1276;22659;-76
2023/01/28 21:09:11;;;;;;;22.80;14.30;;;;;;;-0.50;82.81;99674.14;221259;1277;22599;-75
2023/01/28 21:14:15;;;;;;;29.10;15.20;;;;;;;-0.51;82.76;99677.83;221494;1276;22610;-76
2023/01/28 21:19:18;;;;;;;25.90;16.00;;;;;;;-0.51;82.77;99681.80;221304;1273;22553;-75
2023/01/28 21:24:23;;;;;;;24.90;15.40;;;;;;;-0.52;82.89;99686.05;221379;1276;22763;-75
2023/01/28 21:29:25;;;;;;;24.40;13.60;;;;;;;-0.53;82.77;99693.55;221211;1279;24305;-75
2023/01/28 21:34:32;;;;;;;25.40;15.40;;;;;;;-0.56;82.75;99690.92;221503;1273;22710;-75
2023/01/28 21:39:34;;;;;;;27.80;16.80;;;;;;;-0.57;82.71;99701.93;221475;1280;22596;-76
2023/01/28 21:44:36;;;;;;;24.40;15.60;;;;;;;-0.57;83.03;99702.80;221573;1275;25592;-75
2023/01/28 21:49:39;;;;;;;24.20;14.80;;;;;;;-0.59;82.94;99703.45;221350;1280;24269;-75
2023/01/28 21:54:44;;;;;;;27.30;17.20;;;;;;;-0.62;82.83;99707.28;221295;1257;22633;-76
2023/01/28 21:59:46;;;;;;;31.10;18.20;;;;;;;-0.64;82.71;99703.61;221323;1276;24282;-75
2023/01/28 22:04:49;;;;;;;24.10;15.80;;;;;;;-0.66;82.67;99709.08;221480;1280;22724;-75
2023/01/28 22:09:57;;;;;;;15.50;10.00;;;;;;;-0.73;82.71;99704.09;221318;1280;22719;-76
2023/01/28 22:15:09;;;;;;;15.60;10.60;;;;;;;-0.85;82.28;99712.66;221361;1280;22702;-76
2023/01/28 22:20:12;;;;;;;14.80;10.30;;;;;;;-1.01;82.02;99706.38;221328;1280;25390;-76
2023/01/28 22:25:15;;;;;;;15.80;11.20;;;;;;;-1.11;82.05;99720.77;221298;1273;24231;-75
2023/01/28 22:30:18;;;;;;;15.90;11.20;;;;;;;-1.17;82.28;99723.39;221569;1273;25443;-76
2023/01/28 22:35:22;;;;;;;13.10;9.60;;;;;;;-1.22;82.25;99725.80;221344;1280;22571;-75
2023/01/28 22:40:24;;;;;;;15.10;10.60;;;;;;;-1.28;82.24;99736.66;221605;1279;27638;-75
2023/01/28 22:45:27;;;;;;;16.20;11.40;;;;;;;-1.32;82.46;99740.87;221448;1273;25393;-76
2023/01/28 22:50:30;;;;;;;15.90;10.80;;;;;;;-1.33;82.49;99741.61;221448;1280;22606;-76
2023/01/28 22:55:32;;;;;;;16.60;10.70;;;;;;;-1.36;82.41;99739.73;221403;1280;22598;-74
2023/01/28 23:00:34;;;;;;;13.10;9.80;;;;;;;-1.38;82.40;99736.42;221350;1279;24228;-76
2023/01/28 23:05:37;;;;;;;15.90;10.60;;;;;;;-1.42;82.35;99738.71;221273;1279;22622;-75
2023/01/28 23:10:45;;;;;;;16.20;10.70;;;;;;;-1.47;82.43;99731.53;221394;1277;25457;-75
2023/01/28 23:26:41;;;;;;;16.00;10.90;;;;;;;-1.56;82.38;99723.42;221216;1280;25507;-75
2023/01/28 23:31:46;;;;;;;17.10;11.30;;;;;;;-1.59;82.42;99719.27;221093;1279;22805;-75
2023/01/28 23:36:49;;;;;;;16.50;11.40;;;;;;;-1.64;82.22;99716.98;221539;1273;23828;-75
2023/01/28 23:41:52;;;;;;;18.20;11.70;;;;;;;-1.66;82.35;99714.70;221442;1273;25738;-76
2023/01/28 23:46:55;;;;;;;15.70;10.30;;;;;;;-1.71;82.05;99718.30;221251;1280;22559;-75
2023/01/28 23:51:57;;;;;;;15.00;11.10;;;;;;;-1.78;81.78;99720.54;221445;1272;22603;-75
2023/01/28 23:57:00;;;;;;;14.20;10.40;;;;;;;-1.83;81.90;99711.72;221441;1280;22543;-75
